LIBP/PSR METAR and TAF weather

Enter ICAO airport designator
Station Type Date Time Source
LIBP METAR 2021/09/24 05:50 UTC NOAA

LIBP 240550Z AUTO 20004KT 9999 NCD 12/09 Q1020


Station Type Date Time Source
LIBP Decoded METAR 2021/09/24 05:50 UTC NOAA

Pescara, Italy (LIBP) 42-26N 014-12E 11M
Sep 24, 2021 - 01:50 AM EDT / 2021.09.24 0550 UTC
Wind: from the SSW (200 degrees) at 5 MPH (4 KT):0
Visibility: greater than 7 mile(s):0
Temperature: 53 F (12 C)
Dew Point: 48 F (9 C)
Relative Humidity: 81%
Pressure (altimeter): 30.12 in. Hg (1020 hPa)
ob: LIBP 240550Z AUTO 20004KT 9999 NCD 12/09 Q1020
cycle: 6

Station Type Date Time Source
LIBP TAF 2021/09/24 06:24 UTC NOAA

TAF LIBP 240500Z 2406/2506 VRB05KT CAVOK
BECMG 2408/2410 07010KT
BECMG 2417/2419 VRB05KT

Example: see airport list